METAR AND TAF INFORMATION
METAR FOR UHSS
ADDS - METARS form results

(0958 UTC 24 May 2019)
Data provider http://aviationweather.gov/metar/data/
 
METAR text: UHSS 240930Z 29003MPS 9999 NSC 18/06 Q1005 R01/70D NOSIG RMK QFE752/1003
Conditions at: UHSS (JUZNO-SAHALINSK , RU) observed 0930 UTC 24 May 2019
Temperature: 18.0°C (64°F)
Dewpoint: 6.0°C (43°F) [RH = 45%]
Pressure (altimeter): 29.68 inches Hg (1005.0 mb)
Winds: from the WNW (290 degrees) at 7 MPH (6 knots; 3.1 m/s)
Visibility: 6 or more miles (10+ km)
Ceiling: at least 12,000 feet AGL
Clouds: sky clear below 12,000 feet AGL
Weather: no significant weather observed at this time

METAR text: UHSS 240900Z 28003MPS 9999 NSC 19/06 Q1005 R19/70D NOSIG RMK QFE752/1003
Conditions at: UHSS (JUZNO-SAHALINSK , RU) observed 0900 UTC 24 May 2019
Temperature: 19.0°C (66°F)
Dewpoint: 6.0°C (43°F) [RH = 43%]
Pressure (altimeter): 29.68 inches Hg (1005.0 mb)
Winds: from the W (280 degrees) at 7 MPH (6 knots; 3.1 m/s)
Visibility: 6 or more miles (10+ km)
Ceiling: at least 12,000 feet AGL
Clouds: sky clear below 12,000 feet AGL
Weather: no significant weather observed at this time

Forecast for: UHSS (JUZNO-SAHALINSK , RU)
Text: TAF UHSS 240800Z 2409/2515 26003MPS 9999 SCT040CB
Forecast period: 0900 UTC 24 May 2019 to 0000 UTC 25 May 2019
Forecast type: FROM: standard forecast or significant change
Winds: from the W (260 degrees) at 7 MPH (6 knots; 3.1 m/s)
Visibility: 6 or more miles 10+ km)
Ceiling: at least 12,000 feet AGL
Clouds: scattered clouds at 4000 feet AGL
Weather: no significant weather forecast for this period
Text: BECMG 2500/2503 21006G11MPS
Forecast period: 0000 to 1500 UTC 25 May 2019
Forecast type: BECOMING: Conditions expected to become as follows by 0300 UTC 25 May 2019
Winds: from the SSW (210 degrees) at 14 MPH (12 knots; 6.2 m/s)
gusting to 24 MPH (21 knots; 10.8 m/s)
Visibility: 6 or more miles 10+ km)
Ceiling: at least 12,000 feet AGL
Clouds: scattered clouds at 4000 feet AGL
Weather: no significant weather forecast for this period

 AIRPORT MAP

 RUNWAY INFORMATION
Runway 01 Runway length 11155 ft Runway width 148 ft
Runway elevation 44 ft Runway displaced threshold 0 ft Runway heading 1
Runway 19 Runway length 11155 ft Runway width 148 ft
Runway elevation 49 ft Runway displaced threshold 2080 ft Runway heading 181

 AIRPORT FREQUENCIES
Type GCA Name RDR Frequency 120.6 MHZ
Type TWR Name TWR Frequency 120.6 MHZ

 AIRPORT NEAR NAVIGATION AIDS
Type NDB Name Khomutovo Frequency 505 KHZ
Type NDB Name Khomutovo Frequency 505 KHZ



Powered by Virtual Airlines Manager [v2.6.2]